sensor_id;sensor_type;location;lat;lon;timestamp;P1;durP1;ratioP1;P2;durP2;ratioP2
6825;SDS011;3451;52.476;13.316;2023-11-22T00:02:01;9.57;;;5.50;;
6825;SDS011;3451;52.476;13.316;2023-11-22T00:04:27;10.07;;;5.80;;
6825;SDS011;3451;52.476;13.316;2023-11-22T00:06:53;9.00;;;5.93;;
6825;SDS011;3451;52.476;13.316;2023-11-22T00:09:19;8.87;;;5.17;;
6825;SDS011;3451;52.476;13.316;2023-11-22T00:11:49;11.27;;;5.83;;
6825;SDS011;3451;52.476;13.316;2023-11-22T00:14:15;9.77;;;5.43;;
6825;SDS011;3451;52.476;13.316;2023-11-22T00:16:42;10.43;;;6.03;;
6825;SDS011;3451;52.476;13.316;2023-11-22T00:19:09;10.07;;;6.20;;
6825;SDS011;3451;52.476;13.316;2023-11-22T00:21:35;7.93;;;5.37;;
6825;SDS011;3451;52.476;13.316;2023-11-22T00:24:02;8.50;;;5.00;;
6825;SDS011;3451;52.476;13.316;2023-11-22T00:26:28;8.90;;;5.90;;
6825;SDS011;3451;52.476;13.316;2023-11-22T00:28:54;8.97;;;5.60;;
6825;SDS011;3451;52.476;13.316;2023-11-22T00:31:21;10.77;;;5.40;;
6825;SDS011;3451;52.476;13.316;2023-11-22T00:33:47;11.47;;;6.10;;
6825;SDS011;3451;52.476;13.316;2023-11-22T00:36:13;9.03;;;5.47;;
6825;SDS011;3451;52.476;13.316;2023-11-22T00:38:40;10.70;;;5.70;;
6825;SDS011;3451;52.476;13.316;2023-11-22T00:41:06;13.30;;;6.23;;
6825;SDS011;3451;52.476;13.316;2023-11-22T00:43:33;9.00;;;5.67;;
6825;SDS011;3451;52.476;13.316;2023-11-22T00:46:00;9.73;;;5.67;;
6825;SDS011;3451;52.476;13.316;2023-11-22T00:48:28;9.93;;;5.70;;
6825;SDS011;3451;52.476;13.316;2023-11-22T00:50:54;11.13;;;6.03;;
6825;SDS011;3451;52.476;13.316;2023-11-22T00:53:20;9.03;;;5.20;;
6825;SDS011;3451;52.476;13.316;2023-11-22T00:55:47;10.97;;;5.60;;
6825;SDS011;3451;52.476;13.316;2023-11-22T00:58:13;9.43;;;5.90;;
6825;SDS011;3451;52.476;13.316;2023-11-22T01:00:39;10.33;;;5.50;;
6825;SDS011;3451;52.476;13.316;2023-11-22T01:03:06;10.53;;;5.53;;
6825;SDS011;3451;52.476;13.316;2023-11-22T01:05:35;11.13;;;5.80;;
6825;SDS011;3451;52.476;13.316;2023-11-22T01:08:01;10.20;;;5.57;;
6825;SDS011;3451;52.476;13.316;2023-11-22T01:10:27;9.83;;;5.70;;
6825;SDS011;3451;52.476;13.316;2023-11-22T01:12:54;10.27;;;5.87;;
6825;SDS011;3451;52.476;13.316;2023-11-22T01:15:20;10.97;;;6.00;;
6825;SDS011;3451;52.476;13.316;2023-11-22T01:17:47;12.43;;;6.20;;
6825;SDS011;3451;52.476;13.316;2023-11-22T01:20:14;9.27;;;5.80;;
6825;SDS011;3451;52.476;13.316;2023-11-22T01:22:40;11.27;;;6.20;;
6825;SDS011;3451;52.476;13.316;2023-11-22T01:25:08;11.53;;;6.03;;
6825;SDS011;3451;52.476;13.316;2023-11-22T01:27:34;10.93;;;5.90;;
6825;SDS011;3451;52.476;13.316;2023-11-22T01:30:02;10.13;;;5.50;;
6825;SDS011;3451;52.476;13.316;2023-11-22T01:32:29;12.37;;;6.30;;
6825;SDS011;3451;52.476;13.316;2023-11-22T01:34:55;10.10;;;5.60;;
6825;SDS011;3451;52.476;13.316;2023-11-22T01:37:24;10.53;;;6.27;;
6825;SDS011;3451;52.476;13.316;2023-11-22T01:39:50;11.43;;;6.47;;
6825;SDS011;3451;52.476;13.316;2023-11-22T01:42:19;12.70;;;6.67;;
6825;SDS011;3451;52.476;13.316;2023-11-22T01:44:46;11.17;;;6.73;;
6825;SDS011;3451;52.476;13.316;2023-11-22T01:47:14;13.67;;;7.13;;
6825;SDS011;3451;52.476;13.316;2023-11-22T01:49:40;12.03;;;6.80;;
6825;SDS011;3451;52.476;13.316;2023-11-22T01:52:07;9.80;;;5.83;;
6825;SDS011;3451;52.476;13.316;2023-11-22T01:54:33;11.33;;;6.10;;
6825;SDS011;3451;52.476;13.316;2023-11-22T01:57:00;10.43;;;6.40;;
6825;SDS011;3451;52.476;13.316;2023-11-22T01:59:27;10.40;;;6.57;;
6825;SDS011;3451;52.476;13.316;2023-11-22T02:01:53;13.53;;;6.80;;
6825;SDS011;3451;52.476;13.316;2023-11-22T02:04:20;13.33;;;6.50;;
6825;SDS011;3451;52.476;13.316;2023-11-22T02:06:47;9.43;;;6.10;;
6825;SDS011;3451;52.476;13.316;2023-11-22T02:09:14;10.07;;;6.10;;
6825;SDS011;3451;52.476;13.316;2023-11-22T02:11:41;10.13;;;6.30;;
6825;SDS011;3451;52.476;13.316;2023-11-22T02:14:08;9.83;;;5.67;;
6825;SDS011;3451;52.476;13.316;2023-11-22T02:16:35;10.07;;;5.83;;
6825;SDS011;3451;52.476;13.316;2023-11-22T02:19:02;8.63;;;5.63;;
6825;SDS011;3451;52.476;13.316;2023-11-22T02:21:31;10.37;;;5.43;;
6825;SDS011;3451;52.476;13.316;2023-11-22T02:23:57;8.80;;;6.13;;
6825;SDS011;3451;52.476;13.316;2023-11-22T02:26:23;10.87;;;6.20;;
6825;SDS011;3451;52.476;13.316;2023-11-22T02:28:51;8.83;;;5.60;;
6825;SDS011;3451;52.476;13.316;2023-11-22T02:31:17;8.00;;;5.40;;
6825;SDS011;3451;52.476;13.316;2023-11-22T02:33:43;9.13;;;5.10;;
6825;SDS011;3451;52.476;13.316;2023-11-22T02:36:10;8.20;;;5.07;;
6825;SDS011;3451;52.476;13.316;2023-11-22T02:38:39;8.80;;;5.30;;
6825;SDS011;3451;52.476;13.316;2023-11-22T02:41:06;8.63;;;5.00;;
6825;SDS011;3451;52.476;13.316;2023-11-22T02:43:35;8.70;;;5.70;;
6825;SDS011;3451;52.476;13.316;2023-11-22T02:46:02;8.83;;;5.53;;
6825;SDS011;3451;52.476;13.316;2023-11-22T02:48:30;8.33;;;4.87;;
6825;SDS011;3451;52.476;13.316;2023-11-22T02:50:56;9.77;;;5.27;;
6825;SDS011;3451;52.476;13.316;2023-11-22T02:53:22;9.17;;;5.20;;
6825;SDS011;3451;52.476;13.316;2023-11-22T02:55:49;7.33;;;5.07;;
6825;SDS011;3451;52.476;13.316;2023-11-22T02:58:15;8.40;;;4.90;;
6825;SDS011;3451;52.476;13.316;2023-11-22T03:00:42;6.97;;;4.33;;
6825;SDS011;3451;52.476;13.316;2023-11-22T03:03:09;8.63;;;5.07;;
6825;SDS011;3451;52.476;13.316;2023-11-22T03:05:36;8.90;;;5.23;;
6825;SDS011;3451;52.476;13.316;2023-11-22T03:08:03;7.87;;;5.23;;
6825;SDS011;3451;52.476;13.316;2023-11-22T03:10:30;9.20;;;5.30;;
6825;SDS011;3451;52.476;13.316;2023-11-22T03:12:56;8.53;;;5.63;;
6825;SDS011;3451;52.476;13.316;2023-11-22T03:15:23;9.20;;;5.60;;
6825;SDS011;3451;52.476;13.316;2023-11-22T03:17:49;9.83;;;5.23;;
6825;SDS011;3451;52.476;13.316;2023-11-22T03:20:15;10.33;;;5.00;;
6825;SDS011;3451;52.476;13.316;2023-11-22T03:22:42;8.67;;;5.30;;
6825;SDS011;3451;52.476;13.316;2023-11-22T03:25:12;7.77;;;5.50;;
6825;SDS011;3451;52.476;13.316;2023-11-22T03:27:38;10.17;;;6.23;;
6825;SDS011;3451;52.476;13.316;2023-11-22T03:30:05;10.83;;;5.63;;
6825;SDS011;3451;52.476;13.316;2023-11-22T03:32:33;7.83;;;5.10;;
6825;SDS011;3451;52.476;13.316;2023-11-22T03:35:03;8.37;;;5.10;;
6825;SDS011;3451;52.476;13.316;2023-11-22T03:37:31;9.87;;;5.80;;
6825;SDS011;3451;52.476;13.316;2023-11-22T03:39:58;9.10;;;5.47;;
6825;SDS011;3451;52.476;13.316;2023-11-22T03:42:24;9.80;;;5.60;;
6825;SDS011;3451;52.476;13.316;2023-11-22T03:44:51;9.73;;;5.57;;
6825;SDS011;3451;52.476;13.316;2023-11-22T03:47:17;9.10;;;5.80;;
6825;SDS011;3451;52.476;13.316;2023-11-22T03:49:44;10.23;;;6.20;;
6825;SDS011;3451;52.476;13.316;2023-11-22T03:52:10;11.67;;;5.97;;
6825;SDS011;3451;52.476;13.316;2023-11-22T03:54:37;10.53;;;6.37;;
6825;SDS011;3451;52.476;13.316;2023-11-22T03:57:03;13.00;;;6.60;;
6825;SDS011;3451;52.476;13.316;2023-11-22T03:59:30;12.23;;;6.23;;
6825;SDS011;3451;52.476;13.316;2023-11-22T04:01:56;10.93;;;6.47;;
6825;SDS011;3451;52.476;13.316;2023-11-22T04:04:23;9.57;;;5.53;;
6825;SDS011;3451;52.476;13.316;2023-11-22T04:06:49;11.93;;;6.17;;
6825;SDS011;3451;52.476;13.316;2023-11-22T04:09:16;12.03;;;6.90;;
6825;SDS011;3451;52.476;13.316;2023-11-22T04:11:46;12.37;;;7.30;;
6825;SDS011;3451;52.476;13.316;2023-11-22T04:14:13;9.67;;;5.93;;
6825;SDS011;3451;52.476;13.316;2023-11-22T04:16:40;10.07;;;6.30;;
6825;SDS011;3451;52.476;13.316;2023-11-22T04:19:07;9.37;;;5.87;;
6825;SDS011;3451;52.476;13.316;2023-11-22T04:21:34;12.50;;;6.03;;
6825;SDS011;3451;52.476;13.316;2023-11-22T04:24:00;11.10;;;6.23;;
6825;SDS011;3451;52.476;13.316;2023-11-22T04:26:27;11.27;;;6.63;;
6825;SDS011;3451;52.476;13.316;2023-11-22T04:28:53;9.63;;;6.40;;
6825;SDS011;3451;52.476;13.316;2023-11-22T04:31:20;11.50;;;6.70;;
6825;SDS011;3451;52.476;13.316;2023-11-22T04:33:46;12.23;;;7.07;;
6825;SDS011;3451;52.476;13.316;2023-11-22T04:36:13;11.63;;;6.87;;
6825;SDS011;3451;52.476;13.316;2023-11-22T04:38:39;10.07;;;6.10;;
6825;SDS011;3451;52.476;13.316;2023-11-22T04:41:06;10.80;;;6.50;;
6825;SDS011;3451;52.476;13.316;2023-11-22T04:43:32;10.20;;;6.10;;
6825;SDS011;3451;52.476;13.316;2023-11-22T04:45:59;10.63;;;6.27;;
6825;SDS011;3451;52.476;13.316;2023-11-22T04:48:25;11.53;;;6.40;;
6825;SDS011;3451;52.476;13.316;2023-11-22T04:50:51;11.83;;;7.00;;
6825;SDS011;3451;52.476;13.316;2023-11-22T04:53:18;11.00;;;6.13;;
6825;SDS011;3451;52.476;13.316;2023-11-22T04:55:45;10.73;;;6.37;;
6825;SDS011;3451;52.476;13.316;2023-11-22T04:58:11;12.77;;;6.40;;
6825;SDS011;3451;52.476;13.316;2023-11-22T05:00:37;11.57;;;7.00;;
6825;SDS011;3451;52.476;13.316;2023-11-22T05:03:04;11.40;;;6.40;;
6825;SDS011;3451;52.476;13.316;2023-11-22T05:05:30;10.80;;;6.13;;
6825;SDS011;3451;52.476;13.316;2023-11-22T05:07:57;10.83;;;6.13;;
6825;SDS011;3451;52.476;13.316;2023-11-22T05:10:23;12.57;;;6.57;;
6825;SDS011;3451;52.476;13.316;2023-11-22T05:12:50;11.27;;;7.17;;
6825;SDS011;3451;52.476;13.316;2023-11-22T05:15:16;11.70;;;6.67;;
6825;SDS011;3451;52.476;13.316;2023-11-22T05:17:43;11.50;;;6.43;;
6825;SDS011;3451;52.476;13.316;2023-11-22T05:20:09;9.20;;;6.23;;
6825;SDS011;3451;52.476;13.316;2023-11-22T05:22:36;11.90;;;7.17;;
6825;SDS011;3451;52.476;13.316;2023-11-22T05:25:03;10.37;;;6.63;;
6825;SDS011;3451;52.476;13.316;2023-11-22T05:27:30;11.13;;;6.50;;
6825;SDS011;3451;52.476;13.316;2023-11-22T05:29:58;14.27;;;6.47;;
6825;SDS011;3451;52.476;13.316;2023-11-22T05:32:25;11.57;;;6.60;;
6825;SDS011;3451;52.476;13.316;2023-11-22T05:34:52;11.43;;;6.20;;
6825;SDS011;3451;52.476;13.316;2023-11-22T05:37:19;10.77;;;6.43;;
6825;SDS011;3451;52.476;13.316;2023-11-22T05:39:47;11.03;;;6.73;;
6825;SDS011;3451;52.476;13.316;2023-11-22T05:42:13;11.57;;;6.67;;
6825;SDS011;3451;52.476;13.316;2023-11-22T05:44:40;14.50;;;6.60;;
6825;SDS011;3451;52.476;13.316;2023-11-22T05:47:06;10.93;;;6.17;;
6825;SDS011;3451;52.476;13.316;2023-11-22T05:49:34;11.50;;;6.97;;
6825;SDS011;3451;52.476;13.316;2023-11-22T05:52:00;11.53;;;5.67;;
6825;SDS011;3451;52.476;13.316;2023-11-22T05:54:27;11.43;;;6.03;;
6825;SDS011;3451;52.476;13.316;2023-11-22T05:56:53;9.53;;;6.03;;
6825;SDS011;3451;52.476;13.316;2023-11-22T05:59:20;11.70;;;6.33;;
6825;SDS011;3451;52.476;13.316;2023-11-22T06:01:46;11.63;;;6.60;;
6825;SDS011;3451;52.476;13.316;2023-11-22T06:04:13;10.63;;;6.67;;
6825;SDS011;3451;52.476;13.316;2023-11-22T06:06:39;10.03;;;6.00;;
6825;SDS011;3451;52.476;13.316;2023-11-22T06:09:05;12.10;;;6.77;;
6825;SDS011;3451;52.476;13.316;2023-11-22T06:11:33;13.97;;;7.77;;
6825;SDS011;3451;52.476;13.316;2023-11-22T06:14:00;12.23;;;7.20;;
6825;SDS011;3451;52.476;13.316;2023-11-22T06:16:26;13.13;;;7.87;;
6825;SDS011;3451;52.476;13.316;2023-11-22T06:18:53;12.30;;;7.30;;
6825;SDS011;3451;52.476;13.316;2023-11-22T06:21:19;13.93;;;7.20;;
6825;SDS011;3451;52.476;13.316;2023-11-22T06:23:46;11.27;;;7.13;;
6825;SDS011;3451;52.476;13.316;2023-11-22T06:26:12;14.53;;;7.33;;
6825;SDS011;3451;52.476;13.316;2023-11-22T06:28:41;10.77;;;6.47;;
6825;SDS011;3451;52.476;13.316;2023-11-22T06:31:08;10.97;;;6.30;;
6825;SDS011;3451;52.476;13.316;2023-11-22T06:33:35;12.80;;;6.77;;
6825;SDS011;3451;52.476;13.316;2023-11-22T06:36:02;10.30;;;6.37;;
6825;SDS011;3451;52.476;13.316;2023-11-22T06:38:29;9.40;;;5.80;;
6825;SDS011;3451;52.476;13.316;2023-11-22T06:40:56;11.70;;;6.97;;
6825;SDS011;3451;52.476;13.316;2023-11-22T06:43:22;14.87;;;7.73;;
6825;SDS011;3451;52.476;13.316;2023-11-22T06:45:48;13.97;;;6.77;;
6825;SDS011;3451;52.476;13.316;2023-11-22T06:48:15;9.90;;;6.17;;
6825;SDS011;3451;52.476;13.316;2023-11-22T06:50:41;10.57;;;6.23;;
6825;SDS011;3451;52.476;13.316;2023-11-22T06:53:08;9.93;;;5.97;;
6825;SDS011;3451;52.476;13.316;2023-11-22T06:55:35;13.13;;;6.30;;
6825;SDS011;3451;52.476;13.316;2023-11-22T06:58:01;12.33;;;6.87;;
6825;SDS011;3451;52.476;13.316;2023-11-22T07:00:27;12.47;;;6.70;;
6825;SDS011;3451;52.476;13.316;2023-11-22T07:02:54;11.33;;;6.83;;
6825;SDS011;3451;52.476;13.316;2023-11-22T07:05:22;13.27;;;6.77;;
6825;SDS011;3451;52.476;13.316;2023-11-22T07:07:50;15.33;;;6.53;;
6825;SDS011;3451;52.476;13.316;2023-11-22T07:10:16;12.13;;;6.50;;
6825;SDS011;3451;52.476;13.316;2023-11-22T07:12:47;14.10;;;7.20;;
6825;SDS011;3451;52.476;13.316;2023-11-22T07:15:14;8.77;;;5.83;;
6825;SDS011;3451;52.476;13.316;2023-11-22T07:17:40;13.23;;;7.17;;
6825;SDS011;3451;52.476;13.316;2023-11-22T07:20:06;11.63;;;6.70;;
6825;SDS011;3451;52.476;13.316;2023-11-22T07:22:42;11.13;;;7.30;;
6825;SDS011;3451;52.476;13.316;2023-11-22T07:25:09;12.57;;;6.93;;
6825;SDS011;3451;52.476;13.316;2023-11-22T07:27:44;12.83;;;7.33;;
6825;SDS011;3451;52.476;13.316;2023-11-22T07:30:12;11.37;;;6.80;;
6825;SDS011;3451;52.476;13.316;2023-11-22T07:32:39;14.70;;;7.60;;
6825;SDS011;3451;52.476;13.316;2023-11-22T07:35:06;11.90;;;6.83;;
6825;SDS011;3451;52.476;13.316;2023-11-22T07:37:35;13.40;;;6.70;;
6825;SDS011;3451;52.476;13.316;2023-11-22T07:40:02;11.30;;;7.00;;
6825;SDS011;3451;52.476;13.316;2023-11-22T07:42:31;10.93;;;6.83;;
6825;SDS011;3451;52.476;13.316;2023-11-22T07:44:57;14.53;;;6.90;;
6825;SDS011;3451;52.476;13.316;2023-11-22T07:47:23;12.93;;;7.20;;
6825;SDS011;3451;52.476;13.316;2023-11-22T07:49:51;11.27;;;6.10;;
6825;SDS011;3451;52.476;13.316;2023-11-22T07:52:17;12.13;;;7.27;;
6825;SDS011;3451;52.476;13.316;2023-11-22T07:54:44;12.50;;;6.90;;
6825;SDS011;3451;52.476;13.316;2023-11-22T07:57:10;14.43;;;7.37;;
6825;SDS011;3451;52.476;13.316;2023-11-22T07:59:37;11.40;;;7.20;;
6825;SDS011;3451;52.476;13.316;2023-11-22T08:02:04;15.20;;;7.40;;
6825;SDS011;3451;52.476;13.316;2023-11-22T08:04:34;12.77;;;8.17;;
6825;SDS011;3451;52.476;13.316;2023-11-22T08:07:00;13.40;;;7.53;;
6825;SDS011;3451;52.476;13.316;2023-11-22T08:09:28;10.90;;;7.40;;
6825;SDS011;3451;52.476;13.316;2023-11-22T08:11:59;13.50;;;7.50;;
6825;SDS011;3451;52.476;13.316;2023-11-22T08:14:31;10.30;;;6.63;;
6825;SDS011;3451;52.476;13.316;2023-11-22T08:16:59;12.03;;;6.90;;
6825;SDS011;3451;52.476;13.316;2023-11-22T08:19:25;11.93;;;7.13;;
6825;SDS011;3451;52.476;13.316;2023-11-22T08:21:53;12.23;;;6.60;;
6825;SDS011;3451;52.476;13.316;2023-11-22T08:24:20;11.30;;;6.73;;
6825;SDS011;3451;52.476;13.316;2023-11-22T08:26:46;12.37;;;7.20;;
6825;SDS011;3451;52.476;13.316;2023-11-22T08:29:13;13.40;;;8.20;;
6825;SDS011;3451;52.476;13.316;2023-11-22T08:31:40;14.33;;;7.63;;
6825;SDS011;3451;52.476;13.316;2023-11-22T08:34:07;11.87;;;6.80;;
6825;SDS011;3451;52.476;13.316;2023-11-22T08:36:33;12.97;;;7.43;;
6825;SDS011;3451;52.476;13.316;2023-11-22T08:39:03;11.43;;;7.23;;
6825;SDS011;3451;52.476;13.316;2023-11-22T08:41:30;12.47;;;7.20;;
6825;SDS011;3451;52.476;13.316;2023-11-22T08:43:58;13.70;;;7.43;;
6825;SDS011;3451;52.476;13.316;2023-11-22T08:46:24;12.30;;;7.13;;
6825;SDS011;3451;52.476;13.316;2023-11-22T08:48:50;12.70;;;7.70;;
6825;SDS011;3451;52.476;13.316;2023-11-22T08:51:17;11.43;;;6.80;;
6825;SDS011;3451;52.476;13.316;2023-11-22T08:53:43;13.57;;;7.00;;
6825;SDS011;3451;52.476;13.316;2023-11-22T08:56:13;13.80;;;7.70;;
6825;SDS011;3451;52.476;13.316;2023-11-22T08:58:40;14.07;;;7.30;;
6825;SDS011;3451;52.476;13.316;2023-11-22T09:01:06;11.80;;;7.00;;
6825;SDS011;3451;52.476;13.316;2023-11-22T09:03:34;12.30;;;7.17;;
6825;SDS011;3451;52.476;13.316;2023-11-22T09:06:01;11.00;;;7.30;;
6825;SDS011;3451;52.476;13.316;2023-11-22T09:08:29;11.50;;;7.20;;
6825;SDS011;3451;52.476;13.316;2023-11-22T09:10:56;12.87;;;7.37;;
6825;SDS011;3451;52.476;13.316;2023-11-22T09:13:23;11.47;;;7.17;;
6825;SDS011;3451;52.476;13.316;2023-11-22T09:15:50;10.20;;;7.00;;
6825;SDS011;3451;52.476;13.316;2023-11-22T09:18:17;11.93;;;7.17;;
6825;SDS011;3451;52.476;13.316;2023-11-22T09:20:43;9.77;;;6.53;;
6825;SDS011;3451;52.476;13.316;2023-11-22T09:23:14;12.27;;;7.40;;
6825;SDS011;3451;52.476;13.316;2023-11-22T09:25:41;11.33;;;7.90;;
6825;SDS011;3451;52.476;13.316;2023-11-22T09:28:07;14.37;;;7.30;;
6825;SDS011;3451;52.476;13.316;2023-11-22T09:30:35;12.13;;;7.13;;
6825;SDS011;3451;52.476;13.316;2023-11-22T09:33:08;12.40;;;6.87;;
6825;SDS011;3451;52.476;13.316;2023-11-22T09:35:35;9.80;;;6.47;;
6825;SDS011;3451;52.476;13.316;2023-11-22T09:38:04;9.90;;;7.13;;
6825;SDS011;3451;52.476;13.316;2023-11-22T09:40:32;12.50;;;7.03;;
6825;SDS011;3451;52.476;13.316;2023-11-22T09:42:59;13.07;;;7.50;;
6825;SDS011;3451;52.476;13.316;2023-11-22T09:45:28;12.20;;;7.30;;
6825;SDS011;3451;52.476;13.316;2023-11-22T09:47:56;11.13;;;6.90;;
6825;SDS011;3451;52.476;13.316;2023-11-22T09:50:25;10.07;;;6.87;;
6825;SDS011;3451;52.476;13.316;2023-11-22T09:52:52;11.13;;;6.70;;
6825;SDS011;3451;52.476;13.316;2023-11-22T09:55:21;10.90;;;6.60;;
6825;SDS011;3451;52.476;13.316;2023-11-22T09:57:50;11.03;;;6.60;;
6825;SDS011;3451;52.476;13.316;2023-11-22T10:00:18;12.50;;;6.83;;
6825;SDS011;3451;52.476;13.316;2023-11-22T10:02:47;11.97;;;6.83;;
6825;SDS011;3451;52.476;13.316;2023-11-22T10:05:14;15.67;;;6.97;;
6825;SDS011;3451;52.476;13.316;2023-11-22T10:07:40;12.93;;;7.30;;
6825;SDS011;3451;52.476;13.316;2023-11-22T10:10:07;13.53;;;7.43;;
6825;SDS011;3451;52.476;13.316;2023-11-22T10:12:36;9.33;;;6.50;;
6825;SDS011;3451;52.476;13.316;2023-11-22T10:15:13;9.60;;;6.80;;
6825;SDS011;3451;52.476;13.316;2023-11-22T10:17:40;10.63;;;6.60;;
6825;SDS011;3451;52.476;13.316;2023-11-22T10:20:07;9.57;;;6.67;;
6825;SDS011;3451;52.476;13.316;2023-11-22T10:22:43;10.33;;;6.83;;
6825;SDS011;3451;52.476;13.316;2023-11-22T10:25:10;12.33;;;7.27;;
6825;SDS011;3451;52.476;13.316;2023-11-22T10:27:37;9.50;;;6.57;;
6825;SDS011;3451;52.476;13.316;2023-11-22T10:30:04;10.03;;;6.73;;
6825;SDS011;3451;52.476;13.316;2023-11-22T10:32:31;10.90;;;6.83;;
6825;SDS011;3451;52.476;13.316;2023-11-22T10:34:57;11.47;;;6.77;;
6825;SDS011;3451;52.476;13.316;2023-11-22T10:37:24;10.43;;;6.90;;
6825;SDS011;3451;52.476;13.316;2023-11-22T10:39:51;9.60;;;6.60;;
6825;SDS011;3451;52.476;13.316;2023-11-22T10:42:20;10.47;;;6.63;;
6825;SDS011;3451;52.476;13.316;2023-11-22T10:44:48;9.53;;;6.50;;
6825;SDS011;3451;52.476;13.316;2023-11-22T10:47:15;12.17;;;6.93;;
6825;SDS011;3451;52.476;13.316;2023-11-22T10:49:45;12.03;;;6.70;;
6825;SDS011;3451;52.476;13.316;2023-11-22T10:52:12;9.87;;;6.83;;
6825;SDS011;3451;52.476;13.316;2023-11-22T10:54:40;11.30;;;6.43;;
6825;SDS011;3451;52.476;13.316;2023-11-22T10:57:10;11.47;;;6.00;;
6825;SDS011;3451;52.476;13.316;2023-11-22T10:59:38;9.23;;;5.97;;
6825;SDS011;3451;52.476;13.316;2023-11-22T11:02:07;10.13;;;6.57;;
6825;SDS011;3451;52.476;13.316;2023-11-22T11:04:40;10.00;;;6.63;;
6825;SDS011;3451;52.476;13.316;2023-11-22T11:07:09;12.10;;;6.63;;
6825;SDS011;3451;52.476;13.316;2023-11-22T11:09:38;14.63;;;6.80;;
6825;SDS011;3451;52.476;13.316;2023-11-22T11:12:05;10.40;;;6.90;;
6825;SDS011;3451;52.476;13.316;2023-11-22T11:14:34;12.00;;;6.50;;
6825;SDS011;3451;52.476;13.316;2023-11-22T11:17:01;11.77;;;7.00;;
6825;SDS011;3451;52.476;13.316;2023-11-22T11:19:27;10.27;;;6.90;;
6825;SDS011;3451;52.476;13.316;2023-11-22T11:21:54;10.77;;;6.60;;
6825;SDS011;3451;52.476;13.316;2023-11-22T11:24:23;12.13;;;6.80;;
6825;SDS011;3451;52.476;13.316;2023-11-22T11:26:49;10.43;;;6.30;;
6825;SDS011;3451;52.476;13.316;2023-11-22T11:29:30;10.27;;;6.60;;
6825;SDS011;3451;52.476;13.316;2023-11-22T11:31:56;11.10;;;6.63;;
6825;SDS011;3451;52.476;13.316;2023-11-22T11:34:23;12.27;;;6.07;;
6825;SDS011;3451;52.476;13.316;2023-11-22T11:36:53;11.67;;;7.13;;
6825;SDS011;3451;52.476;13.316;2023-11-22T11:39:26;8.90;;;6.47;;
6825;SDS011;3451;52.476;13.316;2023-11-22T11:42:09;13.13;;;6.60;;
6825;SDS011;3451;52.476;13.316;2023-11-22T11:44:50;9.67;;;6.50;;
6825;SDS011;3451;52.476;13.316;2023-11-22T11:47:17;10.10;;;6.50;;
6825;SDS011;3451;52.476;13.316;2023-11-22T11:49:43;11.00;;;6.47;;
6825;SDS011;3451;52.476;13.316;2023-11-22T11:52:10;10.87;;;6.73;;
6825;SDS011;3451;52.476;13.316;2023-11-22T11:54:39;12.27;;;7.07;;
6825;SDS011;3451;52.476;13.316;2023-11-22T11:57:05;12.30;;;6.80;;
6825;SDS011;3451;52.476;13.316;2023-11-22T11:59:33;11.30;;;6.30;;
6825;SDS011;3451;52.476;13.316;2023-11-22T12:01:59;10.00;;;5.83;;
6825;SDS011;3451;52.476;13.316;2023-11-22T12:04:26;9.23;;;6.30;;
6825;SDS011;3451;52.476;13.316;2023-11-22T12:06:52;11.97;;;6.37;;
6825;SDS011;3451;52.476;13.316;2023-11-22T12:09:22;12.80;;;6.73;;
6825;SDS011;3451;52.476;13.316;2023-11-22T12:11:50;13.00;;;6.60;;
6825;SDS011;3451;52.476;13.316;2023-11-22T12:14:17;10.30;;;6.80;;
6825;SDS011;3451;52.476;13.316;2023-11-22T12:16:43;12.03;;;6.60;;
6825;SDS011;3451;52.476;13.316;2023-11-22T12:19:31;13.60;;;7.77;;
6825;SDS011;3451;52.476;13.316;2023-11-22T12:21:59;9.57;;;6.73;;
6825;SDS011;3451;52.476;13.316;2023-11-22T12:24:25;8.47;;;6.13;;
6825;SDS011;3451;52.476;13.316;2023-11-22T12:26:52;12.40;;;6.80;;
6825;SDS011;3451;52.476;13.316;2023-11-22T12:29:21;12.47;;;6.73;;
6825;SDS011;3451;52.476;13.316;2023-11-22T12:31:50;9.10;;;6.37;;
6825;SDS011;3451;52.476;13.316;2023-11-22T12:34:21;11.20;;;6.47;;
6825;SDS011;3451;52.476;13.316;2023-11-22T12:36:48;10.57;;;6.37;;
6825;SDS011;3451;52.476;13.316;2023-11-22T12:39:15;9.73;;;6.57;;
6825;SDS011;3451;52.476;13.316;2023-11-22T12:41:45;10.37;;;6.13;;
6825;SDS011;3451;52.476;13.316;2023-11-22T12:44:21;11.33;;;5.83;;
6825;SDS011;3451;52.476;13.316;2023-11-22T12:46:51;9.07;;;5.17;;
6825;SDS011;3451;52.476;13.316;2023-11-22T12:49:25;7.83;;;5.07;;
6825;SDS011;3451;52.476;13.316;2023-11-22T12:51:53;8.13;;;4.97;;
6825;SDS011;3451;52.476;13.316;2023-11-22T12:54:20;11.00;;;5.63;;
6825;SDS011;3451;52.476;13.316;2023-11-22T12:56:48;8.53;;;5.40;;
6825;SDS011;3451;52.476;13.316;2023-11-22T12:59:15;8.93;;;5.83;;
6825;SDS011;3451;52.476;13.316;2023-11-22T13:01:42;8.07;;;5.40;;
6825;SDS011;3451;52.476;13.316;2023-11-22T13:04:09;9.03;;;5.90;;
6825;SDS011;3451;52.476;13.316;2023-11-22T13:06:35;12.87;;;6.03;;
6825;SDS011;3451;52.476;13.316;2023-11-22T13:09:03;8.93;;;5.43;;
6825;SDS011;3451;52.476;13.316;2023-11-22T13:11:29;7.70;;;5.03;;
6825;SDS011;3451;52.476;13.316;2023-11-22T13:13:55;9.90;;;5.20;;
6825;SDS011;3451;52.476;13.316;2023-11-22T13:16:22;6.77;;;4.97;;
6825;SDS011;3451;52.476;13.316;2023-11-22T13:18:48;6.77;;;4.93;;
6825;SDS011;3451;52.476;13.316;2023-11-22T13:21:15;7.47;;;5.03;;
6825;SDS011;3451;52.476;13.316;2023-11-22T13:23:41;6.73;;;4.43;;
6825;SDS011;3451;52.476;13.316;2023-11-22T13:26:07;9.57;;;5.07;;
6825;SDS011;3451;52.476;13.316;2023-11-22T13:28:39;10.43;;;5.70;;
6825;SDS011;3451;52.476;13.316;2023-11-22T13:31:07;7.33;;;4.83;;
6825;SDS011;3451;52.476;13.316;2023-11-22T13:33:34;7.80;;;5.10;;
6825;SDS011;3451;52.476;13.316;2023-11-22T13:36:02;8.67;;;5.13;;
6825;SDS011;3451;52.476;13.316;2023-11-22T13:38:29;7.53;;;4.63;;
6825;SDS011;3451;52.476;13.316;2023-11-22T13:40:55;10.87;;;5.37;;
6825;SDS011;3451;52.476;13.316;2023-11-22T13:43:21;9.70;;;5.33;;
6825;SDS011;3451;52.476;13.316;2023-11-22T13:45:48;8.63;;;5.23;;
6825;SDS011;3451;52.476;13.316;2023-11-22T13:48:16;8.23;;;5.17;;
6825;SDS011;3451;52.476;13.316;2023-11-22T13:50:43;9.30;;;5.37;;
6825;SDS011;3451;52.476;13.316;2023-11-22T13:53:10;9.13;;;5.50;;
6825;SDS011;3451;52.476;13.316;2023-11-22T13:55:37;8.97;;;5.27;;
6825;SDS011;3451;52.476;13.316;2023-11-22T13:58:05;8.87;;;5.33;;
6825;SDS011;3451;52.476;13.316;2023-11-22T14:00:31;10.10;;;5.47;;
6825;SDS011;3451;52.476;13.316;2023-11-22T14:03:02;8.70;;;5.73;;
6825;SDS011;3451;52.476;13.316;2023-11-22T14:05:34;8.77;;;5.83;;
6825;SDS011;3451;52.476;13.316;2023-11-22T14:08:01;10.80;;;5.90;;
6825;SDS011;3451;52.476;13.316;2023-11-22T14:10:27;9.20;;;5.83;;
6825;SDS011;3451;52.476;13.316;2023-11-22T14:12:54;9.03;;;5.57;;
6825;SDS011;3451;52.476;13.316;2023-11-22T14:15:26;8.83;;;5.33;;
6825;SDS011;3451;52.476;13.316;2023-11-22T14:17:54;10.20;;;5.80;;
6825;SDS011;3451;52.476;13.316;2023-11-22T14:20:21;10.20;;;6.03;;
6825;SDS011;3451;52.476;13.316;2023-11-22T14:22:48;8.03;;;5.70;;
6825;SDS011;3451;52.476;13.316;2023-11-22T14:25:14;9.20;;;5.60;;
6825;SDS011;3451;52.476;13.316;2023-11-22T14:27:42;8.27;;;5.43;;
6825;SDS011;3451;52.476;13.316;2023-11-22T14:30:10;12.23;;;5.63;;
6825;SDS011;3451;52.476;13.316;2023-11-22T14:32:40;8.90;;;5.90;;
6825;SDS011;3451;52.476;13.316;2023-11-22T14:35:06;8.23;;;5.30;;
6825;SDS011;3451;52.476;13.316;2023-11-22T14:37:36;10.13;;;6.20;;
6825;SDS011;3451;52.476;13.316;2023-11-22T14:40:06;11.77;;;6.17;;
6825;SDS011;3451;52.476;13.316;2023-11-22T14:42:40;9.80;;;5.73;;
6825;SDS011;3451;52.476;13.316;2023-11-22T14:45:07;9.07;;;5.43;;
6825;SDS011;3451;52.476;13.316;2023-11-22T14:47:33;11.23;;;6.53;;
6825;SDS011;3451;52.476;13.316;2023-11-22T14:50:02;10.40;;;6.63;;
6825;SDS011;3451;52.476;13.316;2023-11-22T14:52:32;14.50;;;8.87;;
6825;SDS011;3451;52.476;13.316;2023-11-22T14:54:59;15.77;;;6.33;;